Time;durP1;ratioP1;P1;durP2;ratioP2;P2;SDS_P1;SDS_P2;PMS_P1;PMS_P2;Temp;Humidity;BMP_temperature;BMP_pressure;BME280_temperature;BME280_humidity;BME280_pressure;Samples;Min_cycle;Max_cycle;Signal;HPM_P1;HPM_P2
2023/10/17 00:01:48;;;;;;;2.75;1.45;;;;;;;7.27;69.99;97979.97;5066937;28;20044;-45
2023/10/17 00:06:44;;;;;;;2.28;1.10;;;;;;;7.21;70.27;97975.91;5066224;28;20028;-42
2023/10/17 00:09:10;;;;;;;3.50;1.70;;;;;;;7.22;69.79;97982.78;5029861;28;20144;-43
2023/10/17 00:11:58;;;;;;;3.65;1.17;;;;;;;7.01;69.70;97948.47;5067294;28;20709;-43
2023/10/17 00:14:27;;;;;;;5.03;1.43;;;;;;;7.18;70.05;97973.47;5072982;28;20539;-41
2023/10/17 00:16:57;;;;;;;3.00;1.58;;;;;;;7.18;69.61;97978.63;5065735;28;20079;-44
2023/10/17 00:19:26;;;;;;;;;;;;;;;7.16;69.77;97973.56;5066762;28;20631;-43
2023/10/17 00:21:55;;;;;;;4.40;1.73;;;;;;;7.10;69.96;97981.59;5064332;28;20311;-43
2023/10/17 00:24:23;;;;;;;3.58;1.33;;;;;;;7.10;69.58;97986.78;5067276;28;20056;-41
2023/10/17 00:26:49;;;;;;;4.50;1.58;;;;;;;7.11;70.17;97985.03;5067363;28;20508;-43
2023/10/17 00:29:17;;;;;;;3.37;1.43;;;;;;;6.93;69.71;97954.88;5066800;28;20049;-42
2023/10/17 00:31:45;;;;;;;3.08;1.38;;;;;;;7.04;69.52;97979.31;5048080;28;20036;-42
2023/10/17 00:34:15;;;;;;;3.75;1.77;;;;;;;7.05;69.48;97982.72;5063527;28;20044;-44
2023/10/17 00:37:00;;;;;;;1.95;1.20;;;;;;;7.04;69.18;97981.03;5050716;28;20040;-43
2023/10/17 00:39:29;;;;;;;3.60;1.63;;;;;;;7.04;69.27;97981.03;5032252;28;20561;-42
2023/10/17 00:44:39;;;;;;;6.15;2.30;;;;;;;6.97;69.00;97977.91;5058735;28;20078;-42
2023/10/17 00:47:18;;;;;;;3.83;1.67;;;;;;;6.97;68.90;97972.75;5064558;28;20040;-43
2023/10/17 00:49:45;;;;;;;5.10;1.40;;;;;;;6.95;68.50;97969.41;5049897;28;20052;-42
2023/10/17 00:52:22;;;;;;;4.70;1.70;;;;;;;6.97;68.92;97971.91;5049075;28;20052;-42
2023/10/17 00:54:50;;;;;;;4.90;1.90;;;;;;;6.97;68.72;97974.50;5064588;28;20032;-42
2023/10/17 00:57:18;;;;;;;3.67;1.50;;;;;;;6.90;68.77;97973.97;5065411;28;20250;-43
2023/10/17 00:59:50;;;;;;;2.60;1.33;;;;;;;6.85;68.86;97972.50;5065842;28;20452;-42
2023/10/17 01:02:22;;;;;;;5.88;1.77;;;;;;;6.86;69.36;97976.72;5066687;28;20044;-43
2023/10/17 01:04:51;;;;;;;4.20;1.70;;;;;;;6.84;69.25;97973.41;5066781;28;20039;-42
2023/10/17 01:07:52;;;;;;;7.33;1.40;;;;;;;6.80;69.59;97977.88;5066432;28;20489;-44
2023/10/17 01:10:14;;;;;;;2.63;1.45;;;;;;;6.73;69.69;97986.81;5052295;28;21261;-42
2023/10/17 01:12:53;;;;;;;4.18;1.50;;;;;;;6.71;69.78;97986.03;5065528;28;20072;-42
2023/10/17 01:15:23;;;;;;;4.57;1.88;;;;;;;6.63;69.40;97978.66;5066029;28;20422;-41
2023/10/17 01:17:51;;;;;;;2.55;1.25;;;;;;;6.56;69.93;97984.16;5067561;28;20044;-42
2023/10/17 01:20:20;;;;;;;3.53;1.50;;;;;;;6.49;70.13;97983.59;5065660;28;20044;-42
2023/10/17 01:22:48;;;;;;;2.60;1.30;;;;;;;6.44;70.18;97975.22;5064946;28;20048;-42
2023/10/17 01:25:26;;;;;;;3.25;1.58;;;;;;;6.45;69.88;97983.78;5066549;28;20051;-42
2023/10/17 01:27:54;;;;;;;5.43;1.42;;;;;;;6.44;70.30;97984.72;5065151;28;20059;-42
2023/10/17 01:30:29;;;;;;;2.55;1.60;;;;;;;6.36;70.04;97985.91;5081289;28;20052;-42
2023/10/17 01:32:57;;;;;;;3.95;1.70;;;;;;;6.16;70.06;97961.88;5082012;28;20068;-42
2023/10/17 01:35:24;;;;;;;5.13;1.85;;;;;;;6.31;70.46;97992.16;5065075;28;20633;-41
2023/10/17 01:37:55;;;;;;;3.30;1.55;;;;;;;6.24;70.24;97988.16;5063467;28;20033;-42
2023/10/17 01:40:27;;;;;;;5.65;2.25;;;;;;;6.24;70.47;97995.91;5062193;28;20044;-42
2023/10/17 01:42:57;;;;;;;3.17;1.55;;;;;;;6.23;71.11;98002.81;5065060;28;20531;-42
2023/10/17 01:45:25;;;;;;;2.38;1.50;;;;;;;6.03;71.32;97961.56;5064733;28;20040;-40
2023/10/17 01:47:53;;;;;;;3.83;2.10;;;;;;;6.20;71.13;97991.78;5066035;28;20127;-41
2023/10/17 01:50:24;;;;;;;4.18;1.60;;;;;;;6.16;71.31;97990.25;5065017;28;20400;-41
2023/10/17 01:52:53;;;;;;;4.20;1.52;;;;;;;6.15;71.75;97994.59;5065165;28;20044;-41
2023/10/17 01:55:29;;;;;;;5.25;1.75;;;;;;;5.92;71.45;97962.03;5064973;28;20094;-42
2023/10/17 01:57:57;;;;;;;3.30;1.40;;;;;;;6.09;72.01;97996.59;5050168;28;20083;-42
2023/10/17 02:00:26;;;;;;;5.25;1.40;;;;;;;6.05;72.23;97998.47;5064298;28;20051;-41
2023/10/17 02:02:54;;;;;;;3.97;1.40;;;;;;;6.02;71.64;97996.00;5063820;28;20519;-41
2023/10/17 02:05:22;;;;;;;4.18;1.75;;;;;;;5.99;71.88;97995.31;5067222;28;20043;-44
2023/10/17 02:07:49;;;;;;;3.80;1.60;;;;;;;5.89;72.21;97980.22;5068291;28;20043;-42
2023/10/17 02:10:21;;;;;;;1.95;1.40;;;;;;;5.98;71.95;97999.63;5056204;28;20086;-42
2023/10/17 02:12:48;;;;;;;3.85;1.80;;;;;;;5.95;72.23;97990.28;5069096;28;20032;-42
2023/10/17 02:15:19;;;;;;;3.22;1.58;;;;;;;5.97;72.37;98000.50;5068810;28;20466;-42
2023/10/17 02:17:47;;;;;;;3.25;1.40;;;;;;;5.80;72.33;97974.59;5084886;28;20538;-42
2023/10/17 02:22:55;;;;;;;6.47;1.58;;;;;;;5.73;72.20;97962.88;5069333;28;20626;-42
2023/10/17 02:25:21;;;;;;;5.65;1.42;;;;;;;5.90;72.41;97997.38;5068788;28;20311;-41
2023/10/17 02:27:49;;;;;;;2.15;1.00;;;;;;;5.85;72.52;97986.41;5069850;28;20030;-42
2023/10/17 02:30:17;;;;;;;3.35;1.30;;;;;;;5.92;72.94;97999.88;5068299;28;20037;-42
2023/10/17 02:32:53;;;;;;;2.72;1.30;;;;;;;5.89;73.11;97997.44;5084209;28;20041;-42
2023/10/17 02:35:43;;;;;;;5.03;2.10;;;;;;;5.81;73.14;97994.34;5053824;28;20510;-41
2023/10/17 02:38:08;;;;;;;3.30;1.00;;;;;;;5.81;73.22;97995.13;5060145;28;20436;-42
2023/10/17 02:40:37;;;;;;;2.60;1.30;;;;;;;5.77;73.30;97998.75;5067160;28;20098;-41
2023/10/17 02:43:03;;;;;;;3.05;1.40;;;;;;;5.73;73.13;98004.94;5081842;28;20052;-42
2023/10/17 02:45:29;;;;;;;2.83;1.30;;;;;;;5.67;73.28;97997.47;5067625;28;20372;-40
2023/10/17 02:47:57;;;;;;;2.63;1.40;;;;;;;5.63;72.69;98001.09;5066811;28;20119;-42
2023/10/17 02:52:59;;;;;;;8.25;1.33;;;;;;;5.41;73.40;97969.34;5069079;28;20073;-42
2023/10/17 02:55:26;;;;;;;3.28;1.42;;;;;;;5.59;73.87;97999.53;5065356;28;20482;-41
2023/10/17 02:57:52;;;;;;;1.88;0.98;;;;;;;5.52;73.68;97990.38;5063319;28;20058;-41
2023/10/17 03:00:21;;;;;;;3.00;1.45;;;;;;;5.44;74.07;97998.41;5067493;28;20041;-42
2023/10/17 03:02:52;;;;;;;2.75;1.30;;;;;;;5.07;73.87;97942.41;5062686;28;20087;-42
2023/10/17 03:05:19;;;;;;;2.30;1.00;;;;;;;5.36;74.57;97999.63;5067280;28;20033;-41
2023/10/17 03:07:49;;;;;;;4.75;1.40;;;;;;;5.31;74.48;97993.81;5066895;28;20032;-42
2023/10/17 03:10:40;;;;;;;1.60;0.98;;;;;;;5.28;74.19;97999.94;5066993;28;20446;-41
2023/10/17 03:13:53;;;;;;;2.30;1.27;;;;;;;5.24;74.77;97995.78;5069854;28;20037;-41
2023/10/17 03:16:14;;;;;;;4.32;1.30;;;;;;;5.18;74.29;97982.34;5072078;28;20495;-44
2023/10/17 03:18:40;;;;;;;2.60;1.27;;;;;;;5.13;74.76;97990.22;5066574;28;20045;-43
2023/10/17 03:21:08;;;;;;;2.58;1.00;;;;;;;5.08;75.18;97985.25;5067611;28;20511;-44
2023/10/17 03:23:35;;;;;;;3.15;1.00;;;;;;;5.03;74.86;97986.34;5033281;28;20178;-42
2023/10/17 03:26:01;;;;;;;2.22;1.00;;;;;;;4.95;75.04;97981.50;5066222;28;20123;-43
2023/10/17 03:28:33;;;;;;;3.88;0.80;;;;;;;4.91;75.41;97982.53;5061963;28;20062;-42
2023/10/17 03:30:59;;;;;;;2.30;1.02;;;;;;;4.75;75.55;97986.59;5051972;28;20102;-43
2023/10/17 03:33:29;;;;;;;3.50;1.15;;;;;;;4.73;75.66;97990.09;5081555;28;20044;-42
2023/10/17 03:38:27;;;;;;;2.25;0.90;;;;;;;4.65;76.05;97993.81;5066803;28;20135;-43
2023/10/17 03:40:54;;;;;;;4.18;0.90;;;;;;;4.34;75.87;97934.13;5068140;28;20112;-43
2023/10/17 03:43:28;;;;;;;5.60;1.48;;;;;;;4.63;75.99;97984.47;5066277;28;20087;-45
2023/10/17 03:45:58;;;;;;;2.17;0.90;;;;;;;4.63;76.84;97997.34;5049204;28;20044;-42
2023/10/17 03:48:36;;;;;;;2.33;1.10;;;;;;;4.64;76.76;97999.88;5067053;28;20072;-42
2023/10/17 03:53:36;;;;;;;5.50;1.33;;;;;;;4.57;77.55;98003.56;5065778;28;20041;-45
2023/10/17 03:56:03;;;;;;;3.45;0.85;;;;;;;4.49;77.15;98005.59;5066133;28;20083;-45
2023/10/17 04:00:58;;;;;;;2.05;1.10;;;;;;;4.50;77.66;98016.72;5066885;28;20044;-47
2023/10/17 04:03:25;;;;;;;1.88;0.70;;;;;;;4.47;77.55;98019.38;5066191;28;20050;-46
2023/10/17 04:06:01;;;;;;;1.85;0.70;;;;;;;4.44;77.55;98025.50;5064698;28;20036;-44
2023/10/17 04:08:34;;;;;;;4.90;1.58;;;;;;;4.41;77.58;98020.44;5062346;28;20040;-44
2023/10/17 04:13:49;;;;;;;3.72;1.08;;;;;;;4.39;78.00;98035.13;5065884;28;20495;-44
2023/10/17 04:16:21;;;;;;;3.47;0.90;;;;;;;4.37;77.68;98033.47;5051950;28;20036;-45
2023/10/17 04:18:55;;;;;;;2.97;1.20;;;;;;;4.42;77.58;98037.56;5063821;28;20044;-44
2023/10/17 04:21:31;;;;;;;2.05;1.10;;;;;;;4.45;77.84;98052.88;5066274;28;20048;-45
2023/10/17 04:24:06;;;;;;;3.40;1.30;;;;;;;4.53;77.61;98039.75;5051680;28;20032;-46
2023/10/17 04:26:36;;;;;;;2.97;0.98;;;;;;;4.24;77.46;97987.59;5048603;28;20089;-44
2023/10/17 04:29:18;;;;;;;1.65;0.70;;;;;;;4.62;77.39;98049.69;5065502;28;20308;-44
2023/10/17 04:31:47;;;;;;;1.10;0.82;;;;;;;4.61;76.48;98048.84;5067468;28;20044;-45
2023/10/17 04:34:26;;;;;;;2.55;1.00;;;;;;;4.55;76.41;98049.06;5063339;28;20043;-45
2023/10/17 04:36:53;;;;;;;1.65;0.90;;;;;;;4.41;76.42;98030.72;5050692;28;20218;-45
2023/10/17 04:39:34;;;;;;;1.92;0.80;;;;;;;4.62;76.00;98062.56;5064378;28;20050;-44
2023/10/17 04:44:34;;;;;;;5.70;1.25;;;;;;;4.73;76.44;98064.75;5065224;28;20047;-46
2023/10/17 04:49:30;;;;;;;1.88;1.23;;;;;;;4.72;75.54;98079.34;5063871;28;20044;-46
2023/10/17 04:52:09;;;;;;;2.47;1.37;;;;;;;4.50;76.12;98043.25;5065362;28;20048;-47
2023/10/17 04:57:15;;;;;;;2.05;1.13;;;;;;;4.61;75.88;98081.47;5079001;28;20036;-46
2023/10/17 05:02:36;;;;;;;3.97;1.30;;;;;;;4.67;75.77;98094.13;5065361;28;20049;-43
2023/10/17 06:18:57;;;;;;;2.05;0.85;;;;;;;4.64;73.83;98078.81;5069575;28;20515;-45
2023/10/17 06:21:38;;;;;;;2.53;0.50;;;;;;;5.08;73.78;98131.22;5067618;28;20123;-43
2023/10/17 06:26:02;;;;;;;2.63;0.77;;;;;;;4.88;74.17;98134.53;5069467;28;20090;-46
2023/10/17 06:26:59;;;;;;;6.05;1.52;;;;;;;5.01;74.15;98128.06;5062176;28;20131;-43
2023/10/17 06:34:47;;;;;;;1.73;0.90;;;;;;;5.53;73.37;98134.66;5044943;28;20045;-43
2023/10/17 06:37:19;;;;;;;3.10;0.88;;;;;;;5.61;72.90;98133.50;5070297;28;20108;-44
2023/10/17 06:39:47;;;;;;;1.95;0.60;;;;;;;5.62;72.73;98125.72;5068288;28;20044;-46
2023/10/17 06:42:14;;;;;;;1.67;0.55;;;;;;;5.72;72.12;98118.44;5068253;28;20066;-43
2023/10/17 06:45:20;;;;;;;2.72;0.88;;;;;;;5.61;71.86;98130.91;5069111;28;20127;-43
2023/10/17 06:47:47;;;;;;;5.25;1.75;;;;;;;5.70;71.42;98126.25;5061597;28;20155;-45
2023/10/17 06:53:03;;;;;;;0.93;0.52;;;;;;;6.01;71.19;98138.78;5055913;28;20044;-43
2023/10/17 06:55:29;;;;;;;3.72;1.17;;;;;;;6.10;71.26;98135.81;5068752;28;20177;-43
2023/10/17 06:58:08;;;;;;;4.82;0.90;;;;;;;6.19;70.49;98134.59;5068919;28;20048;-45
2023/10/17 07:00:50;;;;;;;;;;;;;;;6.16;70.01;98137.31;5044457;28;20466;-43
2023/10/17 07:03:24;;;;;;;4.22;0.88;;;;;;;6.10;69.93;98129.81;5082016;28;19951;-44
2023/10/17 07:05:54;;;;;;;4.13;1.20;;;;;;;6.08;69.96;98129.88;5064147;28;20040;-44
2023/10/17 07:08:20;;;;;;;9.85;1.65;;;;;;;6.23;69.91;98143.88;5067690;28;20056;-45
2023/10/17 07:24:36;;;;;;;1.33;0.75;;;;;;;5.62;70.57;98122.28;5066154;28;20428;-45
2023/10/17 07:27:04;;;;;;;1.70;0.88;;;;;;;6.03;70.24;98154.19;5080657;28;20821;-45
2023/10/17 07:29:33;;;;;;;1.50;0.50;;;;;;;6.07;69.54;98164.31;5068297;28;20044;-44
2023/10/17 07:32:09;;;;;;;1.08;0.50;;;;;;;5.73;69.88;98169.97;5066076;28;20086;-44
2023/10/17 07:34:36;;;;;;;1.70;0.93;;;;;;;5.78;70.58;98167.19;5071326;28;20045;-45
2023/10/17 07:40:17;;;;;;;1.85;0.60;;;;;;;5.85;70.32;98176.38;5068543;28;20377;-45
2023/10/17 07:42:45;;;;;;;1.70;0.40;;;;;;;5.68;70.05;98182.19;5067098;28;20039;-46
2023/10/17 07:45:15;;;;;;;1.27;0.70;;;;;;;5.29;70.35;98157.91;5067900;28;20036;-47
2023/10/17 07:47:42;;;;;;;3.25;0.45;;;;;;;5.48;70.85;98175.22;5045344;28;20131;-46
2023/10/17 07:50:13;;;;;;;1.13;0.50;;;;;;;5.43;70.90;98174.56;5065941;28;20205;-46
2023/10/17 07:52:50;;;;;;;0.70;0.40;;;;;;;5.48;71.14;98182.13;5066778;28;20070;-45
2023/10/17 07:57:52;;;;;;;1.25;0.50;;;;;;;5.55;70.21;98192.13;5059352;28;20044;-45
2023/10/17 08:00:36;;;;;;;1.00;0.60;;;;;;;5.42;69.89;98187.50;5050823;28;20040;-46
2023/10/17 08:03:09;;;;;;;3.53;1.00;;;;;;;5.53;69.90;98182.78;5051302;28;20036;-46
2023/10/17 08:05:44;;;;;;;2.67;0.43;;;;;;;5.37;69.72;98168.78;5066825;28;20078;-46
2023/10/17 08:08:14;;;;;;;3.80;1.13;;;;;;;5.27;69.66;98154.56;5056638;28;20423;-43
2023/10/17 08:10:45;;;;;;;2.58;0.60;;;;;;;5.71;69.75;98196.69;5067774;28;20044;-48
2023/10/17 08:13:12;;;;;;;1.45;0.90;;;;;;;5.29;69.41;98171.63;5067580;28;20427;-45
2023/10/17 08:15:53;;;;;;;0.95;0.60;;;;;;;5.37;70.05;98200.56;5066282;28;20113;-43
2023/10/17 08:18:23;;;;;;;1.65;0.80;;;;;;;5.29;69.83;98204.28;5066979;28;20123;-45
2023/10/17 08:23:29;;;;;;;6.45;0.80;;;;;;;5.16;70.07;98167.00;5067038;28;20590;-43
2023/10/17 08:26:00;;;;;;;2.88;0.85;;;;;;;5.42;69.58;98206.38;5054086;28;20055;-45
2023/10/17 08:29:08;;;;;;;2.20;0.55;;;;;;;5.35;69.73;98204.06;5045643;28;20045;-43
2023/10/17 08:31:24;;;;;;;4.22;1.10;;;;;;;5.57;69.54;98212.69;5052284;28;20165;-43
2023/10/17 08:34:04;;;;;;;2.00;0.70;;;;;;;5.82;69.05;98210.84;5065929;28;20177;-44
2023/10/17 08:36:44;;;;;;;2.75;1.02;;;;;;;5.93;69.22;98202.72;5044603;28;20045;-45
2023/10/17 08:42:05;;;;;;;3.25;0.70;;;;;;;6.31;68.27;98196.88;5065881;28;20059;-46
2023/10/17 08:44:35;;;;;;;3.67;0.75;;;;;;;6.44;68.00;98192.03;5064596;28;20067;-45
2023/10/17 08:47:01;;;;;;;0.43;0.38;;;;;;;6.54;67.29;98192.50;5066002;28;20124;-46
2023/10/17 08:49:28;;;;;;;0.82;0.50;;;;;;;6.36;67.05;98191.53;5067322;28;20399;-47
2023/10/17 08:52:03;;;;;;;1.73;0.52;;;;;;;6.31;67.05;98194.28;5047146;28;20512;-48
2023/10/17 08:54:29;;;;;;;2.08;0.77;;;;;;;6.27;66.82;98197.06;5065158;28;20036;-47
2023/10/17 08:56:59;;;;;;;0.95;0.57;;;;;;;6.19;66.49;98193.94;5066530;28;20033;-47
2023/10/17 09:02:15;;;;;;;1.65;0.95;;;;;;;6.37;65.71;98165.66;5065975;28;20040;-44
2023/10/17 09:04:44;;;;;;;3.63;0.60;;;;;;;6.86;65.65;98180.78;5067174;28;20123;-45
2023/10/17 09:07:19;;;;;;;1.05;0.70;;;;;;;7.21;64.16;98188.69;5048421;28;20086;-46
2023/10/17 09:09:54;;;;;;;1.45;0.60;;;;;;;7.08;63.99;98184.09;5064874;28;20036;-44
2023/10/17 09:12:27;;;;;;;1.27;0.47;;;;;;;6.75;63.92;98191.59;5081189;28;20047;-45
2023/10/17 09:14:56;;;;;;;2.08;0.65;;;;;;;6.66;64.20;98191.97;5065954;28;20051;-45
2023/10/17 09:19:52;;;;;;;0.77;0.60;;;;;;;6.71;64.74;98182.28;5069727;28;19920;-46
2023/10/17 09:22:21;;;;;;;2.00;0.60;;;;;;;6.55;64.73;98186.41;5080114;28;20081;-45
2023/10/17 09:24:50;;;;;;;2.92;0.80;;;;;;;6.45;65.47;98195.44;5071012;28;20450;-44
2023/10/17 09:27:18;;;;;;;0.95;0.60;;;;;;;6.25;65.44;98165.31;5067955;28;20121;-45
2023/10/17 09:29:52;;;;;;;1.35;0.68;;;;;;;6.51;65.35;98190.88;5066873;28;20048;-43
2023/10/17 09:32:32;;;;;;;3.10;0.93;;;;;;;6.52;65.78;98189.97;5066611;28;20060;-45
2023/10/17 09:35:03;;;;;;;3.92;0.90;;;;;;;6.69;66.17;98195.28;5069987;28;20040;-45
2023/10/17 09:37:30;;;;;;;2.08;1.15;;;;;;;6.68;65.65;98179.84;5065921;28;20037;-46
2023/10/17 09:39:56;;;;;;;1.95;0.65;;;;;;;6.70;65.89;98190.94;5068402;28;20040;-45
2023/10/17 09:42:22;;;;;;;2.25;1.00;;;;;;;6.81;65.76;98184.41;5067960;28;20139;-45
2023/10/17 09:44:48;;;;;;;4.13;0.95;;;;;;;6.92;65.63;98177.94;5061767;28;20251;-44
2023/10/17 09:47:19;;;;;;;4.53;1.65;;;;;;;6.89;65.62;98186.69;5078142;28;20072;-43
2023/10/17 09:49:48;;;;;;;1.35;0.70;;;;;;;6.85;65.67;98185.13;5070387;28;20044;-44
2023/10/17 09:52:16;;;;;;;4.00;1.25;;;;;;;6.72;66.21;98191.72;5069718;28;20036;-47
2023/10/17 09:54:43;;;;;;;1.85;0.80;;;;;;;7.03;66.07;98193.81;5064965;28;20045;-45
2023/10/17 09:57:14;;;;;;;5.18;0.75;;;;;;;7.04;65.24;98196.34;5068822;28;20032;-45
2023/10/17 09:59:45;;;;;;;0.77;0.50;;;;;;;7.18;64.92;98193.13;5064394;28;20176;-47
2023/10/17 10:02:13;;;;;;;1.90;0.68;;;;;;;6.95;64.08;98186.41;5070331;28;20036;-48
2023/10/17 10:04:39;;;;;;;0.77;0.70;;;;;;;6.90;64.54;98187.50;5069392;28;20412;-46
2023/10/17 10:07:24;;;;;;;2.90;0.73;;;;;;;6.51;64.95;98153.91;5066976;28;20036;-46
2023/10/17 10:09:50;;;;;;;3.72;0.63;;;;;;;6.78;65.13;98173.38;5058432;28;20466;-47
2023/10/17 10:12:16;;;;;;;3.53;0.80;;;;;;;6.77;64.74;98171.69;5069560;28;20051;-50
2023/10/17 10:14:44;;;;;;;2.10;0.80;;;;;;;6.76;65.16;98175.19;5068022;28;20428;-43
2023/10/17 10:17:14;;;;;;;2.55;1.00;;;;;;;7.03;64.94;98173.97;5068850;28;20044;-47
2023/10/17 10:19:40;;;;;;;3.35;1.08;;;;;;;7.27;65.02;98164.31;5049241;28;20044;-44
2023/10/17 10:22:07;;;;;;;2.47;0.93;;;;;;;7.30;64.62;98171.06;5069168;28;20395;-49
2023/10/17 10:24:36;;;;;;;0.98;0.52;;;;;;;7.01;64.07;98167.22;5068031;28;20131;-44
2023/10/17 10:27:15;;;;;;;0.65;0.40;;;;;;;6.93;64.55;98174.44;5051094;28;21004;-43
2023/10/17 10:29:42;;;;;;;3.63;1.00;;;;;;;6.95;64.95;98173.50;5065216;28;20040;-44
2023/10/17 10:32:31;;;;;;;3.08;0.90;;;;;;;7.09;64.65;98178.88;5068133;28;20052;-46
2023/10/17 10:34:57;;;;;;;1.02;0.63;;;;;;;6.86;64.41;98153.22;5067141;28;20041;-42
2023/10/17 10:37:24;;;;;;;3.55;0.70;;;;;;;6.92;64.92;98158.13;5066266;28;20151;-43
2023/10/17 10:40:12;;;;;;;1.65;0.40;;;;;;;6.84;65.62;98167.94;5065947;28;20047;-44
2023/10/17 10:42:50;;;;;;;1.00;0.50;;;;;;;6.68;66.11;98170.34;5062856;28;20086;-46
2023/10/17 10:45:31;;;;;;;0.50;0.50;;;;;;;6.59;66.04;98170.75;5068370;28;20040;-45
2023/10/17 10:47:58;;;;;;;0.80;0.60;;;;;;;6.45;66.26;98167.06;5032003;28;20708;-46
2023/10/17 10:50:29;;;;;;;3.08;0.70;;;;;;;6.34;66.17;98150.28;5066751;28;20047;-47
2023/10/17 10:52:56;;;;;;;2.13;0.60;;;;;;;6.59;66.60;98170.75;5064097;28;20047;-45
2023/10/17 10:55:26;;;;;;;1.02;0.70;;;;;;;6.55;66.33;98166.59;5066199;28;20165;-43
2023/10/17 10:57:53;;;;;;;0.85;0.57;;;;;;;6.31;66.75;98149.59;5065122;28;20032;-43
2023/10/17 11:00:19;;;;;;;2.35;0.60;;;;;;;6.41;66.95;98171.53;5066214;28;20037;-44
2023/10/17 11:02:45;;;;;;;2.72;0.40;;;;;;;6.23;67.41;98143.88;5057137;28;20049;-43
2023/10/17 11:05:14;;;;;;;1.30;0.70;;;;;;;6.35;67.76;98171.78;5066737;28;20045;-42
2023/10/17 11:07:41;;;;;;;0.93;0.65;;;;;;;6.37;67.87;98170.81;5052878;28;20044;-47
2023/10/17 11:10:10;;;;;;;2.85;0.90;;;;;;;6.48;67.28;98169.53;5065182;28;20040;-44
2023/10/17 11:12:36;;;;;;;2.67;0.60;;;;;;;6.38;67.29;98138.91;5066542;28;20068;-42
2023/10/17 11:15:26;;;;;;;1.23;0.68;;;;;;;6.67;67.11;98157.50;5065389;28;20541;-42
2023/10/17 11:18:06;;;;;;;0.82;0.40;;;;;;;6.55;66.51;98156.28;5082662;28;20051;-43
2023/10/17 11:20:34;;;;;;;1.55;0.82;;;;;;;6.37;66.65;98134.69;5063240;28;20037;-43
2023/10/17 11:23:02;;;;;;;1.48;0.47;;;;;;;6.58;66.89;98165.66;5066230;28;20040;-48
2023/10/17 11:25:31;;;;;;;0.63;0.50;;;;;;;6.60;66.92;98174.16;5064760;28;20036;-44
2023/10/17 11:28:00;;;;;;;2.03;0.63;;;;;;;6.28;67.50;98118.75;5065047;28;20044;-42
2023/10/17 11:30:32;;;;;;;1.05;0.55;;;;;;;6.65;67.33;98167.06;5064199;28;20114;-43
2023/10/17 11:33:05;;;;;;;3.40;0.57;;;;;;;6.77;67.51;98172.53;5064799;28;20082;-48
2023/10/17 11:35:34;;;;;;;1.20;0.57;;;;;;;6.39;67.88;98144.91;5065236;28;20129;-45
2023/10/17 11:38:02;;;;;;;3.20;0.57;;;;;;;6.66;67.99;98174.75;5063096;28;20515;-43
2023/10/17 11:40:48;;;;;;;1.17;0.70;;;;;;;6.69;68.09;98173.78;5064709;28;20117;-45
2023/10/17 11:43:21;;;;;;;1.60;0.70;;;;;;;6.63;68.51;98176.63;5065899;28;20097;-44
2023/10/17 11:45:47;;;;;;;1.27;0.68;;;;;;;6.55;69.28;98171.78;5065286;28;20060;-46
2023/10/17 11:48:26;;;;;;;3.60;0.80;;;;;;;6.58;70.91;98175.97;5064036;28;20055;-45
2023/10/17 11:51:16;;;;;;;7.13;1.13;;;;;;;6.57;71.64;98184.63;5065071;28;20068;-45
2023/10/17 11:54:04;;;;;;;2.15;0.40;;;;;;;6.43;72.89;98181.78;5064835;28;20032;-42
2023/10/17 11:56:31;;;;;;;1.83;0.77;;;;;;;6.27;74.07;98182.44;5064142;28;20060;-49
2023/10/17 11:58:57;;;;;;;1.30;0.68;;;;;;;6.15;74.74;98179.50;5049319;28;20127;-46
2023/10/17 12:01:23;;;;;;;4.47;1.00;;;;;;;6.07;75.76;98184.13;5063738;28;20094;-46
2023/10/17 12:03:56;;;;;;;5.53;1.48;;;;;;;5.85;76.58;98159.16;5064090;28;20097;-50
2023/10/17 12:06:26;;;;;;;3.50;0.65;;;;;;;6.06;77.32;98177.28;5065155;28;20824;-48
2023/10/17 12:08:55;;;;;;;1.60;0.90;;;;;;;6.07;77.86;98184.94;5063086;28;20045;-45
2023/10/17 12:11:24;;;;;;;4.82;0.80;;;;;;;6.06;77.68;98177.28;5062471;28;20613;-47
2023/10/17 12:13:51;;;;;;;3.65;0.73;;;;;;;6.17;78.06;98169.97;5063010;28;20048;-46
2023/10/17 12:16:23;;;;;;;1.75;0.80;;;;;;;5.98;78.41;98138.91;5064618;28;20041;-47
2023/10/17 12:18:52;;;;;;;1.90;1.00;;;;;;;6.12;78.38;98179.63;5062831;28;20074;-46
2023/10/17 12:21:19;;;;;;;1.73;0.70;;;;;;;6.12;78.04;98179.63;5061980;28;20044;-49
2023/10/17 12:23:45;;;;;;;0.80;0.47;;;;;;;6.03;78.04;98178.25;5079197;28;20048;-47
2023/10/17 12:26:14;;;;;;;2.53;1.20;;;;;;;6.07;79.09;98171.25;5063380;28;20423;-50
2023/10/17 12:28:41;;;;;;;9.32;0.73;;;;;;;6.18;79.33;98184.53;5063806;28;20054;-46
2023/10/17 12:31:16;;;;;;;2.33;0.93;;;;;;;5.99;78.91;98152.63;5064217;28;20032;-46
2023/10/17 12:33:44;;;;;;;1.65;1.00;;;;;;;6.16;79.62;98179.44;5063762;28;20057;-45
2023/10/17 12:36:12;;;;;;;4.00;0.85;;;;;;;6.09;80.28;98190.06;5062736;28;20048;-48
2023/10/17 12:38:39;;;;;;;3.83;1.00;;;;;;;6.03;81.66;98182.56;5062345;28;20864;-47
2023/10/17 12:41:06;;;;;;;1.95;0.80;;;;;;;5.96;81.94;98182.00;5063598;28;20512;-48
2023/10/17 12:43:35;;;;;;;1.42;0.50;;;;;;;5.84;83.18;98185.84;5062867;28;20040;-45
2023/10/17 12:46:01;;;;;;;3.50;0.82;;;;;;;5.62;84.25;98190.16;5060958;28;20205;-51
2023/10/17 12:48:28;;;;;;;6.45;0.65;;;;;;;5.47;85.09;98168.38;5046836;28;20062;-46
2023/10/17 12:50:54;;;;;;;0.52;0.40;;;;;;;5.49;85.30;98197.53;5046302;28;20511;-51
2023/10/17 12:53:20;;;;;;;3.55;1.30;;;;;;;5.48;85.59;98195.84;5064433;28;20097;-49
2023/10/17 12:55:46;;;;;;;1.45;0.90;;;;;;;5.65;86.35;98196.94;5064088;28;20454;-51
2023/10/17 12:58:11;;;;;;;1.00;0.50;;;;;;;5.61;86.20;98187.63;5063205;28;20106;-47
2023/10/17 13:00:39;;;;;;;0.88;0.60;;;;;;;5.53;86.56;98199.09;5065260;28;20537;-49
2023/10/17 13:03:08;;;;;;;4.07;0.55;;;;;;;5.44;86.17;98191.69;5064495;28;20135;-48
2023/10/17 13:05:34;;;;;;;0.80;0.60;;;;;;;5.38;87.40;98202.25;5064587;28;20079;-47
2023/10/17 13:08:01;;;;;;;1.58;0.57;;;;;;;5.48;88.29;98205.31;5064830;28;20070;-44
2023/10/17 13:10:27;;;;;;;2.50;0.90;;;;;;;5.52;89.01;98202.56;5062433;28;20033;-51
2023/10/17 13:12:53;;;;;;;3.20;0.82;;;;;;;5.43;88.65;98210.66;5057583;28;20109;-50
2023/10/17 13:15:19;;;;;;;2.75;0.80;;;;;;;5.44;88.56;98214.06;5063334;28;20470;-47
2023/10/17 13:17:46;;;;;;;2.80;0.70;;;;;;;5.51;88.97;98207.75;5063812;28;20032;-46
2023/10/17 13:20:14;;;;;;;1.58;0.80;;;;;;;5.45;88.45;98216.56;5063069;28;20040;-50
2023/10/17 13:22:47;;;;;;;2.28;0.68;;;;;;;5.51;88.46;98218.06;5029634;28;20059;-45
2023/10/17 13:25:14;;;;;;;4.40;0.90;;;;;;;5.48;88.69;98205.31;5064516;28;20032;-45
2023/10/17 13:27:40;;;;;;;2.30;0.90;;;;;;;5.55;89.24;98219.63;5063014;28;20436;-45
2023/10/17 13:30:07;;;;;;;0.65;0.50;;;;;;;5.49;88.62;98217.31;5058845;28;20040;-50
2023/10/17 13:32:33;;;;;;;1.77;0.80;;;;;;;5.51;88.88;98212.91;5064866;28;20512;-46
2023/10/17 13:35:00;;;;;;;3.50;0.82;;;;;;;5.55;88.49;98214.47;5063783;28;20045;-46
2023/10/17 13:37:27;;;;;;;1.38;0.70;;;;;;;5.43;87.98;98223.53;5046066;28;20255;-44
2023/10/17 13:39:56;;;;;;;1.35;0.82;;;;;;;5.54;88.26;98231.69;5061311;28;20041;-47
2023/10/17 13:42:23;;;;;;;0.90;0.43;;;;;;;5.55;88.22;98229.94;5062039;28;20040;-51
2023/10/17 13:44:49;;;;;;;0.90;0.50;;;;;;;5.49;87.96;98231.03;5063965;28;20036;-51
2023/10/17 13:47:16;;;;;;;1.35;0.60;;;;;;;5.47;87.94;98231.97;5063355;28;20041;-50
2023/10/17 13:49:42;;;;;;;1.98;0.70;;;;;;;5.44;86.62;98232.91;5064415;28;20056;-47
2023/10/17 13:52:09;;;;;;;3.00;0.45;;;;;;;5.55;86.92;98223.03;5062783;28;20041;-48
2023/10/17 13:54:37;;;;;;;0.98;0.70;;;;;;;5.42;85.55;98237.31;5064302;28;20036;-46
2023/10/17 13:57:09;;;;;;;1.83;1.02;;;;;;;5.51;85.91;98231.81;5071743;28;20037;-49
2023/10/17 13:59:39;;;;;;;2.20;0.90;;;;;;;5.62;85.31;98240.88;5060786;28;20113;-43
2023/10/17 14:02:08;;;;;;;2.72;1.13;;;;;;;5.73;86.12;98244.72;5066360;28;20185;-43
2023/10/17 14:04:38;;;;;;;1.40;0.63;;;;;;;5.73;84.39;98251.63;5055088;28;20045;-50
2023/10/17 14:07:04;;;;;;;;;;;;;;;5.57;83.86;98248.78;5068278;28;20047;-50
2023/10/17 14:09:30;;;;;;;1.05;0.60;;;;;;;5.55;83.78;98246.25;5067477;28;19920;-47
2023/10/17 14:11:56;;;;;;;0.82;0.60;;;;;;;5.54;83.67;98248.91;5067680;28;20134;-53
2023/10/17 14:14:25;;;;;;;1.42;0.80;;;;;;;5.49;84.21;98243.91;5067963;28;20040;-43
2023/10/17 14:16:51;;;;;;;2.25;0.80;;;;;;;5.63;84.06;98248.56;5068433;28;20451;-48
2023/10/17 14:22:21;;;;;;;1.85;1.00;;;;;;;5.54;83.61;98252.31;5066080;28;20045;-47
2023/10/17 14:27:20;;;;;;;2.35;1.20;;;;;;;5.60;84.05;98261.53;5065016;28;20447;-47